Time;durP1;ratioP1;P1;durP2;ratioP2;P2;SDS_P1;SDS_P2;PMS_P1;PMS_P2;Temp;Humidity;BMP_temperature;BMP_pressure;BME280_temperature;BME280_humidity;BME280_pressure;Samples;Min_cycle;Max_cycle;Signal;HPM_P1;HPM_P2
2021/03/13 00:00:25;;;;;;;18.98;13.20;;;;;;;8.50;56.45;101630.30;1688212;84;21172;-46
2021/03/13 00:02:53;;;;;;;17.65;12.50;;;;;;;8.45;56.46;101627.28;1697604;83;21179;-47
2021/03/13 00:05:31;;;;;;;18.85;11.20;;;;;;;8.41;56.49;101633.33;1689348;84;21176;-46
2021/03/13 00:07:59;;;;;;;16.40;10.30;;;;;;;8.38;56.55;101628.99;1686427;85;21632;-46
2021/03/13 00:10:27;;;;;;;13.28;9.53;;;;;;;8.35;56.52;101617.73;1671213;85;21255;-46
2021/03/13 00:12:55;;;;;;;16.48;10.10;;;;;;;8.34;56.44;101619.91;1682553;85;21227;-46
2021/03/13 00:15:23;;;;;;;11.73;10.10;;;;;;;8.31;56.26;101624.65;1679857;85;21200;-46
2021/03/13 00:17:53;;;;;;;11.75;9.83;;;;;;;8.29;56.22;101624.20;1683744;85;21137;-46
2021/03/13 00:20:24;;;;;;;13.20;10.55;;;;;;;8.24;56.25;101627.63;1682808;85;21228;-46
2021/03/13 00:22:53;;;;;;;15.00;10.45;;;;;;;8.20;56.35;101635.42;1680990;85;21236;-46
2021/03/13 00:25:22;;;;;;;13.30;9.85;;;;;;;8.17;56.40;101644.47;1721219;82;21594;-46
2021/03/13 00:27:51;;;;;;;13.62;10.13;;;;;;;8.15;56.50;101652.25;1735147;82;21172;-46
2021/03/13 00:30:22;;;;;;;15.23;9.93;;;;;;;8.12;56.43;101652.23;1734788;82;21314;-46
2021/03/13 00:32:53;;;;;;;18.52;10.90;;;;;;;8.12;56.58;101655.25;1734589;82;21127;-46
2021/03/13 00:35:22;;;;;;;13.65;10.23;;;;;;;8.13;56.53;101646.63;1704174;84;21259;-46
2021/03/13 00:37:50;;;;;;;16.60;10.32;;;;;;;8.13;56.32;101645.33;1699722;84;21220;-46
2021/03/13 00:40:20;;;;;;;12.55;9.83;;;;;;;8.11;56.25;101636.69;1698107;84;21205;-46
2021/03/13 00:42:48;;;;;;;16.85;10.65;;;;;;;8.06;56.17;101631.48;1700610;84;21518;-46
2021/03/13 00:45:18;;;;;;;15.90;12.18;;;;;;;8.02;56.05;101626.28;1663941;85;21604;-47
2021/03/13 00:47:47;;;;;;;15.23;11.05;;;;;;;7.99;56.25;101621.98;1636543;87;21194;-46
2021/03/13 00:50:19;;;;;;;16.65;11.50;;;;;;;7.95;56.23;101618.95;1667429;85;21235;-46
2021/03/13 00:52:47;;;;;;;;;;;;;;;7.94;56.31;101612.44;1663778;85;21284;-44
2021/03/13 00:55:15;;;;;;;15.25;11.05;;;;;;;7.93;56.32;101618.05;1675024;84;20274;-46
2021/03/13 00:57:45;;;;;;;21.10;11.90;;;;;;;7.91;56.36;101615.88;1662995;85;21628;-46
2021/03/13 01:00:17;;;;;;;24.07;13.98;;;;;;;7.88;56.43;101615.89;1655072;85;21191;-46
2021/03/13 01:02:46;;;;;;;29.98;16.15;;;;;;;7.85;56.51;101621.05;1661999;85;21698;-47
2021/03/13 01:05:15;;;;;;;27.37;15.98;;;;;;;7.81;56.63;101620.61;1662416;85;21592;-46
2021/03/13 01:07:45;;;;;;;21.33;12.68;;;;;;;7.79;56.69;101617.14;1658023;84;21180;-46
2021/03/13 01:10:24;;;;;;;18.05;12.50;;;;;;;7.78;56.82;101615.44;1657406;86;21203;-46
2021/03/13 01:12:52;;;;;;;16.77;12.80;;;;;;;7.79;56.81;101619.73;1657769;86;21156;-46
2021/03/13 01:15:21;;;;;;;15.40;11.35;;;;;;;7.79;56.72;101615.85;1657850;86;21175;-46
2021/03/13 01:17:49;;;;;;;15.63;11.15;;;;;;;7.79;56.59;101617.60;1657263;86;21223;-46
2021/03/13 01:20:18;;;;;;;12.82;10.08;;;;;;;7.78;56.58;101618.02;1664554;86;21184;-46
2021/03/13 01:22:46;;;;;;;14.73;11.63;;;;;;;7.75;56.51;101608.09;1695802;84;21199;-46
2021/03/13 01:25:15;;;;;;;14.87;11.30;;;;;;;7.73;56.52;101608.06;1657866;86;21335;-46
2021/03/13 01:27:43;;;;;;;16.02;10.68;;;;;;;7.70;56.57;101605.90;1657942;86;21361;-46
2021/03/13 01:30:15;;;;;;;17.50;10.95;;;;;;;7.68;56.69;101607.20;1657487;86;21234;-46
2021/03/13 01:32:43;;;;;;;16.32;11.60;;;;;;;7.68;56.64;101605.91;1660350;85;21608;-46
2021/03/13 01:35:13;;;;;;;14.73;11.45;;;;;;;7.69;56.59;101603.73;1683871;84;21165;-47
2021/03/13 01:37:41;;;;;;;14.45;11.48;;;;;;;7.70;56.44;101603.31;1688747;84;21192;-46
2021/03/13 01:40:14;;;;;;;14.03;10.90;;;;;;;7.68;56.35;101596.84;1661960;85;21608;-46
2021/03/13 01:42:46;;;;;;;11.78;10.40;;;;;;;7.66;56.37;101593.37;1682665;84;21177;-46
2021/03/13 01:45:18;;;;;;;13.55;11.43;;;;;;;7.63;56.34;101590.76;1692548;84;21160;-46
2021/03/13 01:47:47;;;;;;;12.10;10.80;;;;;;;7.60;56.46;101594.66;1681826;84;21161;-47
2021/03/13 01:50:17;;;;;;;14.43;10.90;;;;;;;7.59;56.52;101593.33;1693108;84;21415;-47
2021/03/13 01:52:50;;;;;;;14.85;10.60;;;;;;;7.59;56.50;101595.50;1653981;85;21189;-46
2021/03/13 01:55:19;;;;;;;13.55;11.38;;;;;;;7.59;56.44;101598.09;1689684;84;21191;-46
2021/03/13 01:57:48;;;;;;;14.28;12.05;;;;;;;7.58;56.32;101598.97;1692802;84;21180;-46
2021/03/13 02:00:21;;;;;;;18.45;11.60;;;;;;;7.57;56.24;101602.81;1663108;85;21152;-46
2021/03/13 02:03:01;;;;;;;14.13;12.03;;;;;;;7.57;56.18;101601.10;1797479;79;22839;-46
2021/03/13 02:05:34;;;;;;;14.80;12.68;;;;;;;7.50;56.25;101603.67;1780967;80;21188;-46
2021/03/13 02:08:34;;;;;;;14.83;11.97;;;;;;;7.47;56.54;101614.88;1743653;82;21148;-46
2021/03/13 02:11:49;;;;;;;13.62;11.45;;;;;;;7.50;56.63;101622.64;1771624;79;22940;-46
2021/03/13 02:14:47;;;;;;;13.83;11.85;;;;;;;7.47;56.59;101642.06;1732492;82;21318;-46
2021/03/13 02:17:36;;;;;;;16.90;12.43;;;;;;;7.48;56.51;101641.19;1687988;84;21203;-46
2021/03/13 02:20:45;;;;;;;16.93;13.60;;;;;;;7.48;56.58;101643.78;1661472;86;21299;-46
2021/03/13 02:23:16;;;;;;;20.20;15.40;;;;;;;7.46;56.47;101639.02;1688606;84;21159;-47
2021/03/13 02:26:29;;;;;;;21.97;16.40;;;;;;;7.43;56.52;101639.02;1674142;85;21184;-47
2021/03/13 02:29:52;;;;;;;19.20;13.62;;;;;;;7.40;56.64;101641.16;1684219;84;21175;-46
2021/03/13 02:32:42;;;;;;;17.60;13.00;;;;;;;7.40;56.81;101645.05;1695349;84;21587;-47
2021/03/13 02:35:18;;;;;;;16.37;12.82;;;;;;;7.42;56.55;101645.05;1688556;84;21192;-46
2021/03/13 02:37:51;;;;;;;16.25;13.70;;;;;;;7.41;56.47;101644.63;1688705;84;21572;-46
2021/03/13 02:40:22;;;;;;;16.57;13.68;;;;;;;7.39;56.42;101634.27;1688512;84;21332;-46
2021/03/13 02:43:05;;;;;;;18.80;13.05;;;;;;;7.36;56.40;101635.53;1664957;84;21203;-46
2021/03/13 02:45:36;;;;;;;19.10;13.50;;;;;;;7.34;56.46;101639.84;1670673;84;21159;-46
2021/03/13 02:48:09;;;;;;;15.60;12.28;;;;;;;7.32;56.62;101641.55;1671908;85;21171;-46
2021/03/13 02:50:40;;;;;;;13.55;11.53;;;;;;;7.31;56.81;101640.26;1675517;84;21203;-47
2021/03/13 02:53:09;;;;;;;14.90;11.45;;;;;;;7.32;56.87;101636.80;1671499;84;21180;-47
2021/03/13 02:55:37;;;;;;;18.05;12.65;;;;;;;7.32;56.78;101631.61;1689413;84;21175;-46
2021/03/13 02:58:06;;;;;;;14.13;11.40;;;;;;;7.31;56.70;101641.55;1688552;84;21651;-46
2021/03/13 03:00:38;;;;;;;17.40;12.03;;;;;;;7.30;56.63;101646.28;1666150;84;21172;-46
2021/03/13 03:03:09;;;;;;;14.53;12.68;;;;;;;7.27;56.68;101650.16;1687061;84;21148;-46
2021/03/13 03:05:46;;;;;;;14.70;12.07;;;;;;;7.28;56.74;101654.46;1771651;79;22649;-47
2021/03/13 03:08:14;;;;;;;15.88;12.15;;;;;;;7.23;56.89;101669.12;1733419;82;21164;-47
2021/03/13 03:10:44;;;;;;;14.35;11.68;;;;;;;7.22;57.00;101666.08;1695347;82;21136;-47
2021/03/13 03:13:12;;;;;;;18.87;12.73;;;;;;;7.23;57.00;101669.12;1731952;81;21143;-47
2021/03/13 03:15:41;;;;;;;20.27;13.53;;;;;;;7.26;56.86;101669.12;1738836;82;21616;-47
2021/03/13 03:18:17;;;;;;;14.75;12.15;;;;;;;7.25;56.67;101661.77;1740044;82;21177;-47
2021/03/13 03:20:48;;;;;;;16.85;12.88;;;;;;;7.25;56.50;101651.88;1700657;84;21602;-47
2021/03/13 03:23:16;;;;;;;16.48;13.20;;;;;;;7.23;56.45;101658.77;1685226;84;21230;-47
2021/03/13 03:25:44;;;;;;;16.37;11.90;;;;;;;7.20;56.41;101654.84;1700537;84;21187;-47
2021/03/13 03:28:18;;;;;;;15.13;12.10;;;;;;;7.18;56.41;101647.08;1694076;84;21587;-47
2021/03/13 03:30:49;;;;;;;16.90;12.80;;;;;;;7.16;56.30;101649.22;1690853;84;21175;-46
2021/03/13 03:33:23;;;;;;;14.30;12.23;;;;;;;7.21;56.34;101644.95;1810206;79;22840;-46
2021/03/13 03:35:53;;;;;;;16.17;12.68;;;;;;;7.17;56.07;101656.14;1771925;80;21144;-46
2021/03/13 03:38:21;;;;;;;16.30;12.65;;;;;;;7.14;55.76;101645.75;1779097;80;21184;-46
2021/03/13 03:40:49;;;;;;;17.05;13.28;;;;;;;7.12;55.83;101646.17;1779508;80;21223;-46
2021/03/13 03:43:28;;;;;;;16.77;13.43;;;;;;;7.09;55.58;101655.23;1777040;80;21155;-46
2021/03/13 03:45:58;;;;;;;18.77;12.75;;;;;;;7.03;55.44;101653.44;1786419;80;21325;-47
2021/03/13 03:48:26;;;;;;;16.70;13.18;;;;;;;6.98;55.43;101649.09;1784757;80;21120;-46
2021/03/13 03:50:56;;;;;;;16.48;12.58;;;;;;;6.92;55.68;101652.94;1780657;80;21572;-46
2021/03/13 03:53:34;;;;;;;16.82;15.03;;;;;;;6.90;55.85;101653.36;1786991;79;28022;-46
2021/03/13 03:56:04;;;;;;;16.70;13.62;;;;;;;6.87;55.91;101658.49;1774693;80;21575;-46
2021/03/13 03:58:39;;;;;;;17.45;13.93;;;;;;;6.85;55.66;101655.03;1769202;80;21167;-46
2021/03/13 04:01:07;;;;;;;15.65;13.28;;;;;;;6.81;55.53;101654.15;1729703;83;21239;-46
2021/03/13 04:03:45;;;;;;;16.57;13.38;;;;;;;6.78;55.57;101650.68;1706199;83;21148;-46
2021/03/13 04:06:12;;;;;;;17.48;13.28;;;;;;;6.75;55.26;101644.17;1729779;83;21164;-46
2021/03/13 04:08:43;;;;;;;17.23;14.47;;;;;;;6.71;55.38;101650.17;1723535;83;21597;-46
2021/03/13 04:11:20;;;;;;;17.17;14.58;;;;;;;6.66;55.46;101650.58;1729731;83;21152;-46
2021/03/13 04:13:53;;;;;;;15.65;13.95;;;;;;;6.64;55.69;101649.67;1729702;83;21636;-46
2021/03/13 04:16:29;;;;;;;22.40;13.62;;;;;;;6.65;55.81;101648.84;1781027;79;23054;-46
2021/03/13 04:19:00;;;;;;;17.85;14.20;;;;;;;6.59;55.73;101638.86;1736609;82;21176;-46
2021/03/13 04:21:28;;;;;;;18.57;14.63;;;;;;;6.61;55.70;101635.44;1716490;82;21144;-46
2021/03/13 04:23:57;;;;;;;19.12;15.18;;;;;;;6.62;55.74;101641.03;1741189;82;21125;-46
2021/03/13 04:26:25;;;;;;;18.77;14.70;;;;;;;6.58;55.75;101641.45;1693835;82;21141;-46
2021/03/13 04:28:52;;;;;;;19.23;15.95;;;;;;;6.58;55.49;101640.16;1744739;82;21196;-46
2021/03/13 04:31:24;;;;;;;21.57;16.55;;;;;;;6.55;55.36;101640.98;1737706;82;21168;-46
2021/03/13 04:33:52;;;;;;;33.95;21.15;;;;;;;6.53;55.55;101637.52;1705471;82;21139;-46
2021/03/13 04:36:20;;;;;;;25.05;17.48;;;;;;;6.51;55.60;101634.06;1740440;82;21140;-46
2021/03/13 04:38:48;;;;;;;24.55;17.37;;;;;;;6.51;55.62;101631.47;1723218;82;21136;-47
2021/03/13 04:41:16;;;;;;;19.95;16.15;;;;;;;6.50;55.56;101633.63;1744920;82;21172;-46
2021/03/13 04:43:44;;;;;;;22.90;17.40;;;;;;;6.50;55.32;101624.59;1737634;81;21169;-46
2021/03/13 04:46:12;;;;;;;24.20;18.15;;;;;;;6.48;55.39;101639.22;1715759;82;21282;-46
2021/03/13 04:48:40;;;;;;;25.32;17.75;;;;;;;6.47;55.60;101641.34;1746683;82;21172;-46
2021/03/13 04:51:08;;;;;;;21.48;17.87;;;;;;;6.46;55.73;101640.92;1741309;82;21169;-46
2021/03/13 04:53:36;;;;;;;25.92;18.75;;;;;;;6.46;55.70;101641.34;1740545;82;21564;-46
2021/03/13 04:56:05;;;;;;;26.07;18.67;;;;;;;6.45;55.57;101649.52;1738366;82;21616;-46
2021/03/13 04:58:34;;;;;;;23.75;17.57;;;;;;;6.46;55.84;101651.27;1739272;82;21148;-47
2021/03/13 05:01:02;;;;;;;21.35;17.40;;;;;;;6.51;55.87;101653.91;1680039;82;21330;-46
2021/03/13 05:03:32;;;;;;;21.05;16.45;;;;;;;6.54;55.80;101644.86;1731644;82;21160;-46
2021/03/13 05:06:00;;;;;;;22.70;17.35;;;;;;;6.58;55.83;101648.78;1743778;82;21525;-46
2021/03/13 05:08:28;;;;;;;21.42;16.55;;;;;;;6.59;55.85;101637.58;1739516;82;21156;-46
2021/03/13 05:10:56;;;;;;;24.20;17.12;;;;;;;6.61;55.86;101643.20;1730077;82;21164;-46
2021/03/13 05:13:24;;;;;;;26.85;18.82;;;;;;;6.60;55.72;101642.33;1735126;82;21176;-46
2021/03/13 05:15:52;;;;;;;25.92;18.25;;;;;;;6.63;55.95;101654.00;1737047;82;21164;-46
2021/03/13 05:18:20;;;;;;;23.22;17.70;;;;;;;6.65;56.19;101651.42;1738351;81;21140;-46
2021/03/13 05:20:48;;;;;;;28.32;18.15;;;;;;;6.69;56.32;101645.42;1738706;81;21175;-46
2021/03/13 05:23:16;;;;;;;33.88;18.50;;;;;;;6.75;56.48;101641.59;1739141;82;21321;-46
2021/03/13 05:25:45;;;;;;;30.70;18.23;;;;;;;6.80;56.51;101642.05;1740016;82;21139;-46
2021/03/13 05:28:13;;;;;;;30.57;19.77;;;;;;;6.85;56.60;101637.80;1741382;82;21141;-46
2021/03/13 05:30:41;;;;;;;32.17;18.07;;;;;;;6.90;56.75;101643.01;1741333;82;21164;-46
2021/03/13 05:33:10;;;;;;;28.62;17.82;;;;;;;6.95;56.92;101649.06;1739369;82;21191;-46
2021/03/13 05:35:40;;;;;;;26.65;17.95;;;;;;;7.01;57.30;101647.81;1739192;82;21342;-46
2021/03/13 05:38:08;;;;;;;24.80;17.27;;;;;;;7.09;57.35;101659.11;1740613;82;21188;-46
2021/03/13 05:40:36;;;;;;;27.80;18.55;;;;;;;7.18;57.38;101660.45;1737270;82;21196;-47
2021/03/13 05:43:04;;;;;;;25.45;18.05;;;;;;;7.26;57.32;101664.81;1743201;81;21153;-47
2021/03/13 05:45:32;;;;;;;27.32;19.02;;;;;;;7.32;57.39;101661.39;1740675;82;21548;-46
2021/03/13 05:48:02;;;;;;;28.90;18.48;;;;;;;7.38;57.55;101667.89;1738157;82;21194;-46
2021/03/13 05:50:31;;;;;;;28.35;18.07;;;;;;;7.45;57.79;101665.79;1738383;81;21577;-46
2021/03/13 05:52:59;;;;;;;28.98;18.57;;;;;;;7.51;58.05;101673.59;1737046;82;21309;-46
2021/03/13 05:55:27;;;;;;;28.25;17.57;;;;;;;7.60;58.36;101679.25;1737803;82;21568;-46
2021/03/13 05:57:55;;;;;;;23.22;17.85;;;;;;;7.69;58.52;101685.33;1738572;82;21537;-46
2021/03/13 06:00:24;;;;;;;26.25;18.62;;;;;;;7.80;58.56;101688.84;1739899;82;21191;-47
2021/03/13 06:02:54;;;;;;;24.00;18.48;;;;;;;7.89;58.45;101696.64;1741540;82;21159;-46
2021/03/13 06:05:22;;;;;;;22.67;17.90;;;;;;;7.95;58.24;101712.25;1741201;82;21160;-46
2021/03/13 06:07:53;;;;;;;22.60;17.52;;;;;;;8.03;58.17;101722.21;1739386;82;21200;-46
2021/03/13 06:10:22;;;;;;;26.90;18.48;;;;;;;8.08;58.29;101728.26;1725329;82;21208;-46
2021/03/13 06:12:50;;;;;;;30.43;18.50;;;;;;;8.18;58.38;101720.95;1737077;82;21157;-47
2021/03/13 06:15:23;;;;;;;25.88;19.85;;;;;;;8.31;58.23;101719.30;1732435;82;21141;-46
2021/03/13 06:17:57;;;;;;;29.72;18.37;;;;;;;8.42;58.00;101705.94;1727848;81;21177;-46
2021/03/13 06:20:34;;;;;;;24.35;19.07;;;;;;;8.55;58.03;101712.86;1727446;82;21165;-46
2021/03/13 06:23:15;;;;;;;24.30;18.23;;;;;;;8.70;57.91;101713.31;1674864;84;21177;-46
2021/03/13 06:25:46;;;;;;;25.32;18.55;;;;;;;8.88;57.90;101722.44;1676470;84;21696;-46
2021/03/13 06:28:20;;;;;;;24.65;18.10;;;;;;;9.12;57.48;101724.15;1676761;84;21189;-47
2021/03/13 06:30:50;;;;;;;23.05;18.55;;;;;;;9.38;57.18;101724.56;1674781;84;21594;-46
2021/03/13 06:33:32;;;;;;;28.17;18.55;;;;;;;9.69;56.49;101722.33;1674050;84;21173;-47
2021/03/13 06:36:03;;;;;;;26.37;20.17;;;;;;;9.99;56.15;101718.77;1675414;84;21216;-47
2021/03/13 06:38:36;;;;;;;22.20;17.87;;;;;;;10.30;55.39;101714.32;1673777;84;21624;-46
2021/03/13 06:41:23;;;;;;;23.15;18.25;;;;;;;10.59;54.89;101715.02;1814861;79;21120;-47
2021/03/13 06:43:56;;;;;;;22.87;16.85;;;;;;;10.74;54.72;101714.05;1772927;80;21160;-47
2021/03/13 06:46:28;;;;;;;;;;;;;;;10.91;54.12;101723.45;1774522;80;21206;-45
2021/03/13 06:48:57;;;;;;;21.42;16.48;;;;;;;11.06;53.63;101730.28;1769688;80;20240;-47
2021/03/13 06:51:38;;;;;;;24.12;17.60;;;;;;;11.15;53.36;101726.27;1771744;80;21163;-47
2021/03/13 06:54:16;;;;;;;21.68;15.63;;;;;;;11.20;53.04;101729.29;1771950;80;21560;-47
2021/03/13 06:56:50;;;;;;;22.62;16.55;;;;;;;11.27;52.73;101736.16;1670704;85;21152;-48
2021/03/13 06:59:26;;;;;;;21.95;17.65;;;;;;;11.30;52.68;101736.14;1671624;85;21187;-48
2021/03/13 07:02:10;;;;;;;18.70;16.70;;;;;;;11.31;52.52;101727.42;1673808;85;21179;-47
2021/03/13 07:04:44;;;;;;;18.85;16.57;;;;;;;11.41;52.58;101723.89;1766387;79;23074;-47
2021/03/13 07:07:30;;;;;;;22.27;16.80;;;;;;;11.44;52.27;101727.75;1733717;82;21152;-47
2021/03/13 07:10:00;;;;;;;20.12;17.07;;;;;;;11.47;52.23;101729.47;1737258;82;21156;-47
2021/03/13 07:12:40;;;;;;;23.60;17.40;;;;;;;11.51;52.34;101723.77;1736804;82;21580;-47
2021/03/13 07:15:24;;;;;;;17.95;15.55;;;;;;;11.59;52.24;101724.56;1742084;82;21247;-47
2021/03/13 07:18:01;;;;;;;21.23;16.10;;;;;;;11.62;52.04;101725.84;1740578;82;21148;-47
2021/03/13 07:20:32;;;;;;;22.00;16.73;;;;;;;11.66;52.26;101735.36;1733438;82;21148;-47
2021/03/13 07:23:02;;;;;;;22.85;17.00;;;;;;;11.67;52.12;101731.89;1742834;82;21176;-47
2021/03/13 07:25:31;;;;;;;24.53;17.03;;;;;;;11.64;51.82;101741.03;1726148;82;21144;-47
2021/03/13 07:28:02;;;;;;;21.75;16.17;;;;;;;11.54;52.11;101743.31;1733425;82;21212;-47
2021/03/13 07:30:31;;;;;;;;;;;;;;;11.39;52.55;101738.67;1683196;83;21124;-45
2021/03/13 07:33:02;;;;;;;23.92;15.95;;;;;;;11.26;53.06;101739.66;1676988;83;20164;-47
2021/03/13 07:35:38;;;;;;;23.27;16.87;;;;;;;11.15;53.29;101746.69;1638532;86;21155;-47
2021/03/13 07:38:11;;;;;;;20.30;16.73;;;;;;;11.05;53.77;101747.64;1651635;86;21219;-46
2021/03/13 07:40:45;;;;;;;22.30;16.70;;;;;;;10.98;54.02;101745.98;1680343;85;21152;-46
2021/03/13 07:43:19;;;;;;;25.05;17.02;;;;;;;10.97;54.13;101752.05;1825327;77;23065;-47
2021/03/13 07:45:48;;;;;;;23.62;16.93;;;;;;;10.87;54.38;101749.09;1808639;77;21149;-47
2021/03/13 07:48:16;;;;;;;20.62;16.35;;;;;;;10.81;54.55;101745.66;1819711;77;21489;-47
2021/03/13 07:50:48;;;;;;;21.80;16.50;;;;;;;10.75;54.57;101743.97;1757208;80;21155;-47
2021/03/13 07:53:16;;;;;;;22.32;16.15;;;;;;;10.68;54.57;101748.77;1778470;79;21197;-47
2021/03/13 07:55:51;;;;;;;19.85;15.93;;;;;;;10.64;54.88;101752.27;1749609;81;21526;-47
2021/03/13 07:58:21;;;;;;;20.52;15.55;;;;;;;10.65;55.01;101746.21;1677390;84;21199;-47
2021/03/13 08:00:49;;;;;;;20.65;16.70;;;;;;;10.67;55.01;101752.27;1688071;84;21182;-47
2021/03/13 08:03:38;;;;;;;23.73;17.95;;;;;;;10.69;55.08;101745.31;1669067;84;21174;-47
2021/03/13 08:06:12;;;;;;;22.45;17.23;;;;;;;10.72;55.21;101747.01;1682412;84;21172;-47
2021/03/13 08:08:50;;;;;;;19.25;16.35;;;;;;;10.76;55.23;101749.59;1770168;79;23083;-47
2021/03/13 08:11:19;;;;;;;;;;;;;;;10.73;54.91;101752.23;1734143;82;21541;-45
2021/03/13 08:13:52;;;;;;;24.43;17.37;;;;;;;10.70;54.97;101748.76;1738267;82;20151;-47
2021/03/13 08:16:37;;;;;;;22.55;15.85;;;;;;;10.64;55.28;101749.67;1741349;82;21164;-47
2021/03/13 08:19:26;;;;;;;18.62;16.00;;;;;;;10.60;55.38;101751.87;1741597;82;21147;-47
2021/03/13 08:22:10;;;;;;;24.27;16.65;;;;;;;10.59;55.39;101751.45;1679736;85;21172;-47
2021/03/13 08:24:51;;;;;;;23.40;17.65;;;;;;;10.58;55.32;101744.50;1804958;78;22678;-47
2021/03/13 08:27:39;;;;;;;22.22;17.10;;;;;;;10.49;55.57;101752.35;1780969;80;21187;-47
2021/03/13 08:30:29;;;;;;;21.55;16.62;;;;;;;10.45;55.54;101759.75;1771524;80;21152;-47
2021/03/13 08:33:06;;;;;;;22.55;16.77;;;;;;;10.38;55.83;101755.04;1786205;80;21093;-46
2021/03/13 08:35:47;;;;;;;23.47;17.57;;;;;;;10.37;56.10;101760.23;1779130;80;21151;-47
2021/03/13 08:38:18;;;;;;;21.55;17.30;;;;;;;10.36;56.22;101757.21;1725941;83;21602;-47
2021/03/13 08:40:49;;;;;;;24.80;17.23;;;;;;;10.37;55.86;101749.81;1754078;81;21197;-47
2021/03/13 08:43:37;;;;;;;24.18;18.00;;;;;;;10.37;55.77;101760.23;1733904;81;21647;-47
2021/03/13 08:46:08;;;;;;;20.80;16.70;;;;;;;10.38;55.65;101756.77;1752094;81;21159;-47
2021/03/13 08:49:00;;;;;;;26.45;17.48;;;;;;;10.35;55.47;101748.97;1741876;81;21152;-47
2021/03/13 08:51:28;;;;;;;21.97;18.30;;;;;;;10.30;55.51;101754.64;1721662;83;21156;-47
2021/03/13 08:53:56;;;;;;;22.93;18.37;;;;;;;10.23;55.79;101748.59;1717658;83;21136;-47
2021/03/13 08:56:40;;;;;;;21.57;16.82;;;;;;;10.20;56.09;101751.66;1726220;83;21284;-46
2021/03/13 08:59:17;;;;;;;25.27;16.35;;;;;;;10.17;56.37;101743.86;1719360;83;21152;-46
2021/03/13 09:02:04;;;;;;;25.30;18.00;;;;;;;10.15;56.52;101744.30;1754409;81;21179;-47
2021/03/13 09:04:35;;;;;;;23.92;17.48;;;;;;;10.13;56.58;101747.34;1610947;88;21278;-47
2021/03/13 09:07:04;;;;;;;25.75;18.80;;;;;;;10.09;56.63;101752.09;1643023;87;21154;-47
2021/03/13 09:09:34;;;;;;;22.93;18.32;;;;;;;10.04;56.60;101748.20;1649173;87;21339;-47
2021/03/13 09:12:11;;;;;;;22.87;18.55;;;;;;;9.99;56.73;101733.50;1645144;87;21874;-47
2021/03/13 09:14:55;;;;;;;23.20;17.10;;;;;;;9.99;57.08;101734.80;1772979;79;23084;-47
2021/03/13 09:17:26;;;;;;;24.07;17.90;;;;;;;9.94;57.19;101737.84;1733163;82;21714;-47
2021/03/13 09:19:55;;;;;;;24.67;17.92;;;;;;;9.93;57.08;101747.83;1732474;82;21144;-46
2021/03/13 09:22:24;;;;;;;23.07;18.37;;;;;;;9.93;57.05;101753.02;1749136;82;21131;-47
2021/03/13 09:25:01;;;;;;;22.10;17.37;;;;;;;9.91;57.04;101756.06;1733266;82;21302;-47
2021/03/13 09:27:36;;;;;;;25.97;18.48;;;;;;;9.88;57.02;101745.66;1730505;82;21188;-47
2021/03/13 09:30:05;;;;;;;20.23;16.77;;;;;;;9.84;56.96;101743.09;1727940;82;21620;-47
2021/03/13 09:32:49;;;;;;;21.62;19.05;;;;;;;9.84;56.68;101733.99;1789660;79;28252;-47
2021/03/13 09:35:19;;;;;;;21.57;18.12;;;;;;;9.79;56.69;101746.13;1774489;80;21615;-47
2021/03/13 09:37:47;;;;;;;26.82;18.67;;;;;;;9.80;56.79;101751.77;1722119;82;21223;-47
2021/03/13 09:40:17;;;;;;;23.45;18.60;;;;;;;9.78;57.05;101757.41;1755428;81;21164;-47
2021/03/13 09:42:47;;;;;;;22.45;17.45;;;;;;;9.75;57.37;101753.50;1719534;81;21172;-47
2021/03/13 09:45:18;;;;;;;26.15;17.42;;;;;;;9.72;57.67;101740.53;1745281;81;21596;-47
2021/03/13 09:47:54;;;;;;;20.57;16.70;;;;;;;9.70;57.72;101742.27;1723887;81;21179;-46
2021/03/13 09:50:31;;;;;;;23.42;17.12;;;;;;;9.70;57.96;101740.97;1726409;82;21156;-46
2021/03/13 09:53:04;;;;;;;23.15;17.50;;;;;;;9.74;58.08;101747.02;1733859;81;21179;-47
2021/03/13 09:55:32;;;;;;;22.50;18.32;;;;;;;9.77;58.12;101737.46;1743415;81;21152;-46
2021/03/13 09:58:02;;;;;;;31.42;19.23;;;;;;;9.80;58.02;101730.97;1726834;81;21188;-46
2021/03/13 10:00:39;;;;;;;23.80;17.75;;;;;;;9.79;58.40;101730.52;1725583;81;21577;-47
2021/03/13 10:03:16;;;;;;;28.85;18.70;;;;;;;9.76;58.74;101729.25;1715561;82;21439;-46
2021/03/13 10:05:53;;;;;;;20.37;16.62;;;;;;;9.79;59.08;101728.35;1726812;82;21184;-47
2021/03/13 10:08:21;;;;;;;20.60;16.45;;;;;;;9.82;59.31;101735.73;1726247;82;21147;-47
2021/03/13 10:13:27;;;;;;;22.02;17.42;;;;;;;9.97;59.37;101739.14;1817462;79;22925;-46
2021/03/13 10:15:55;;;;;;;26.73;17.42;;;;;;;9.96;59.41;101738.70;1779998;80;21152;-47
2021/03/13 10:18:28;;;;;;;20.08;17.57;;;;;;;9.99;59.70;101743.90;1776876;80;21163;-47
2021/03/13 10:21:00;;;;;;;20.57;16.42;;;;;;;10.03;59.75;101737.81;1783008;80;21183;-47
2021/03/13 10:23:36;;;;;;;21.85;17.65;;;;;;;10.05;59.91;101747.34;1724234;83;21159;-47
2021/03/13 10:26:07;;;;;;;22.27;18.10;;;;;;;10.11;59.92;101754.28;1724173;83;21167;-46
2021/03/13 10:28:38;;;;;;;22.95;18.40;;;;;;;10.16;59.78;101756.45;1636956;85;21177;-47
2021/03/13 10:31:22;;;;;;;22.73;19.25;;;;;;;10.24;59.71;101763.78;1791931;79;28683;-47
2021/03/13 10:33:51;;;;;;;21.00;17.20;;;;;;;10.28;59.67;101768.09;1748126;81;21196;-47
2021/03/13 10:36:21;;;;;;;24.80;17.48;;;;;;;10.37;59.58;101766.30;1743630;81;21196;-47
2021/03/13 10:38:51;;;;;;;23.80;17.73;;;;;;;10.43;59.42;101765.39;1743423;81;21152;-46
2021/03/13 10:41:23;;;;;;;24.00;18.07;;;;;;;10.46;59.36;101757.59;1746177;81;21157;-47
2021/03/13 10:43:52;;;;;;;25.60;19.32;;;;;;;10.47;59.30;101765.37;1746819;81;21172;-47
2021/03/13 10:46:24;;;;;;;23.30;18.15;;;;;;;10.48;59.19;101766.25;1679666;85;21168;-47
2021/03/13 10:49:00;;;;;;;24.25;20.17;;;;;;;10.50;59.08;101762.77;1837492;77;28708;-47
2021/03/13 10:51:35;;;;;;;21.25;18.02;;;;;;;10.48;59.16;101772.33;1822798;78;21184;-47
2021/03/13 10:54:05;;;;;;;19.50;17.40;;;;;;;10.51;59.28;101779.23;1758809;81;21170;-47
2021/03/13 10:56:41;;;;;;;22.45;18.00;;;;;;;10.49;59.40;101778.38;1756851;81;21136;-47
2021/03/13 10:59:09;;;;;;;23.15;19.37;;;;;;;10.46;59.71;101781.01;1719661;83;21137;-47
2021/03/13 11:01:39;;;;;;;25.88;19.32;;;;;;;10.46;59.90;101773.20;1758882;81;21226;-47
2021/03/13 11:04:08;;;;;;;24.47;19.37;;;;;;;10.48;59.70;101779.27;1738159;81;21159;-47
2021/03/13 11:06:36;;;;;;;23.60;19.12;;;;;;;10.49;59.68;101778.38;1758484;81;21329;-47
2021/03/13 11:09:12;;;;;;;22.75;18.62;;;;;;;10.46;59.80;101777.11;1723097;83;21184;-47
2021/03/13 11:11:40;;;;;;;22.02;19.55;;;;;;;10.46;59.98;101776.67;1759392;81;21206;-47
2021/03/13 11:14:09;;;;;;;23.80;19.65;;;;;;;10.47;60.04;101780.12;1722654;83;21141;-47
2021/03/13 11:16:37;;;;;;;24.70;19.75;;;;;;;10.48;60.11;101768.86;1758639;81;21143;-47
2021/03/13 11:19:07;;;;;;;23.52;18.90;;;;;;;10.47;60.03;101764.50;1723078;83;21329;-47
2021/03/13 11:21:36;;;;;;;26.40;20.17;;;;;;;10.48;60.18;101767.12;1759370;81;21202;-47
2021/03/13 11:24:05;;;;;;;22.77;18.17;;;;;;;10.46;60.56;101767.57;1722434;83;21181;-47
2021/03/13 11:26:33;;;;;;;24.05;19.10;;;;;;;10.48;60.73;101768.86;1759035;81;21122;-47
2021/03/13 11:29:02;;;;;;;25.80;19.95;;;;;;;10.50;60.74;101769.71;1758837;81;21214;-47
2021/03/13 11:31:31;;;;;;;26.30;19.92;;;;;;;10.53;60.74;101760.14;1722118;83;21176;-47
2021/03/13 11:33:59;;;;;;;32.30;20.85;;;;;;;10.56;60.80;101760.14;1668598;85;21569;-47
2021/03/13 11:36:28;;;;;;;24.18;19.42;;;;;;;10.78;60.28;101762.62;1723389;83;21321;-47
2021/03/13 11:38:56;;;;;;;25.60;19.40;;;;;;;10.90;59.94;101755.55;1763454;81;21127;-47
2021/03/13 11:41:25;;;;;;;22.15;19.70;;;;;;;10.96;59.96;101757.28;1722501;83;21345;-47
2021/03/13 11:43:54;;;;;;;24.23;19.20;;;;;;;11.00;59.97;101757.25;1758783;81;21580;-47